Time;durP1;ratioP1;P1;durP2;ratioP2;P2;SDS_P1;SDS_P2;PMS_P1;PMS_P2;Temp;Humidity;BMP_temperature;BMP_pressure;BME280_temperature;BME280_humidity;BME280_pressure;Samples;Min_cycle;Max_cycle;Signal;HPM_P1;HPM_P2
2021/03/18 00:00:51;;;;;;;31.97;23.50;;;;;;;1.41;75.71;96613.34;1745916;80;21141;-92
2021/03/18 00:03:21;;;;;;;31.07;22.13;;;;;;;1.39;75.79;96614.73;1748473;80;21090;-93
2021/03/18 00:05:47;;;;;;;37.00;25.10;;;;;;;1.36;75.82;96614.17;1746445;81;21114;-92
2021/03/18 00:08:13;;;;;;;34.65;22.82;;;;;;;1.35;75.93;96613.36;1742317;81;21361;-92
2021/03/18 00:10:39;;;;;;;32.98;21.40;;;;;;;1.32;75.84;96617.44;1742856;82;21467;-91
2021/03/18 00:13:07;;;;;;;33.53;21.37;;;;;;;1.36;75.89;96618.01;1745057;80;21166;-92
2021/03/18 00:15:34;;;;;;;31.05;21.73;;;;;;;1.36;75.83;96612.89;1747648;82;21122;-92
2021/03/18 00:18:00;;;;;;;34.10;23.70;;;;;;;1.35;75.88;96618.95;1746426;80;21128;-92
2021/03/18 00:20:26;;;;;;;35.92;23.25;;;;;;;1.28;75.90;96617.31;1747646;81;21238;-92
2021/03/18 00:22:52;;;;;;;34.33;22.75;;;;;;;1.29;76.13;96615.56;1746601;80;21376;-91
2021/03/18 00:25:19;;;;;;;32.00;22.22;;;;;;;1.32;76.06;96616.16;1752887;82;21051;-92
2021/03/18 00:27:46;;;;;;;30.08;21.57;;;;;;;1.32;75.87;96609.77;1746025;80;21126;-90
2021/03/18 00:30:15;;;;;;;30.27;20.68;;;;;;;1.34;76.02;96613.48;1747578;80;21094;-88
2021/03/18 00:32:41;;;;;;;33.10;21.85;;;;;;;1.31;75.99;96619.66;1753652;80;21118;-89
2021/03/18 00:35:09;;;;;;;30.00;21.05;;;;;;;1.29;76.05;96613.81;1756092;80;21153;-88
2021/03/18 00:37:39;;;;;;;28.07;20.20;;;;;;;1.30;76.31;96607.79;1764348;80;21257;-88
2021/03/18 00:40:10;;;;;;;29.05;20.25;;;;;;;1.34;76.20;96605.80;1710773;83;21126;-88
2021/03/18 00:42:56;;;;;;;29.37;23.00;;;;;;;1.24;75.86;96608.25;1759799;80;21326;-89
2021/03/18 00:45:23;;;;;;;30.32;22.67;;;;;;;1.20;76.07;96606.86;1762302;80;21114;-89
2021/03/18 00:47:49;;;;;;;21.10;15.20;;;;;;;1.20;76.17;96596.16;1710836;83;21111;-89
2021/03/18 00:50:29;;;;;;;28.35;19.42;;;;;;;1.18;76.12;96600.59;1762507;80;21119;-88
2021/03/18 00:53:05;;;;;;;28.30;20.75;;;;;;;1.12;75.98;96595.92;1824925;76;23220;-88
2021/03/18 00:55:32;;;;;;;27.98;19.65;;;;;;;1.06;76.24;96601.98;1811152;77;21290;-88
2021/03/18 00:57:58;;;;;;;25.60;17.40;;;;;;;0.98;76.30;96598.75;1810652;77;21107;-90
2021/03/18 01:00:41;;;;;;;30.27;21.27;;;;;;;0.95;76.38;96596.40;1817635;77;21111;-91
2021/03/18 01:03:08;;;;;;;27.48;20.62;;;;;;;0.93;76.47;96590.59;1807743;77;21130;-90
2021/03/18 01:05:49;;;;;;;30.17;21.42;;;;;;;0.94;76.41;96596.52;1810361;77;21254;-91
2021/03/18 01:08:16;;;;;;;31.07;20.23;;;;;;;0.89;76.62;96585.36;1813718;77;21123;-90
2021/03/18 01:10:50;;;;;;;26.25;19.95;;;;;;;0.89;76.61;96587.92;1810662;77;21151;-91
2021/03/18 01:13:19;;;;;;;27.25;18.62;;;;;;;0.85;76.66;96583.52;1763107;80;21148;-91
2021/03/18 01:15:58;;;;;;;27.35;19.48;;;;;;;0.78;76.70;96578.96;1742092;80;21376;-91
2021/03/18 01:18:30;;;;;;;29.63;19.87;;;;;;;0.74;76.88;96582.69;1749503;80;21123;-92
2021/03/18 01:20:56;;;;;;;24.70;19.07;;;;;;;0.74;76.83;96578.85;1756585;79;21256;-90
2021/03/18 01:23:22;;;;;;;25.45;18.23;;;;;;;0.74;76.94;96583.50;1751629;79;21125;-92
2021/03/18 01:25:48;;;;;;;22.55;15.30;;;;;;;0.74;77.00;96586.53;1752330;79;21137;-91
2021/03/18 01:28:15;;;;;;;28.50;20.52;;;;;;;0.69;77.47;96577.93;1749066;79;21947;-92
2021/03/18 01:30:41;;;;;;;28.40;19.23;;;;;;;0.68;77.21;96581.89;1756206;79;21109;-92
2021/03/18 01:33:07;;;;;;;29.35;20.77;;;;;;;0.71;77.32;96582.46;1752336;79;21118;-91
2021/03/18 01:35:33;;;;;;;25.95;18.48;;;;;;;0.70;77.12;96581.30;1756385;79;21228;-91
2021/03/18 01:38:00;;;;;;;27.37;19.20;;;;;;;0.72;77.18;96586.64;1754749;79;21130;-92
2021/03/18 01:40:30;;;;;;;18.00;13.13;;;;;;;0.69;77.13;96584.79;1750517;79;21356;-92
2021/03/18 01:42:56;;;;;;;21.25;15.45;;;;;;;0.68;77.27;96575.49;1756791;79;21123;-90
2021/03/18 01:45:22;;;;;;;27.60;19.57;;;;;;;0.64;77.33;96581.75;1750432;79;21141;-91
2021/03/18 01:47:50;;;;;;;24.37;16.35;;;;;;;0.59;77.29;96584.19;1755764;79;21838;-92
2021/03/18 01:50:18;;;;;;;23.73;17.98;;;;;;;0.54;77.50;96586.29;1752561;79;21149;-92
2021/03/18 01:52:44;;;;;;;25.97;19.82;;;;;;;0.49;77.55;96585.02;1748644;79;21099;-91
2021/03/18 01:55:15;;;;;;;23.55;17.42;;;;;;;0.48;77.68;96588.00;1743572;80;21134;-91
2021/03/18 01:57:41;;;;;;;24.23;16.00;;;;;;;0.49;77.79;96584.55;1743577;80;21098;-92
2021/03/18 02:00:09;;;;;;;20.82;15.08;;;;;;;0.47;77.72;96582.55;1739763;80;21170;-91
2021/03/18 02:02:35;;;;;;;17.00;11.45;;;;;;;0.46;77.81;96584.75;1740061;80;21364;-91
2021/03/18 02:05:02;;;;;;;25.95;19.40;;;;;;;0.43;77.86;96585.45;1715382;80;21138;-90
2021/03/18 02:07:28;;;;;;;20.70;13.78;;;;;;;0.39;77.95;96584.88;1741372;80;21534;-91
2021/03/18 02:09:54;;;;;;;25.77;18.23;;;;;;;0.38;78.16;96583.71;1742261;80;21419;-91
2021/03/18 02:12:20;;;;;;;22.22;16.15;;;;;;;0.36;78.08;96586.38;1742935;80;21251;-91
2021/03/18 02:14:46;;;;;;;26.07;19.17;;;;;;;0.36;78.43;96586.38;1738417;80;21138;-92
2021/03/18 02:17:18;;;;;;;23.32;18.20;;;;;;;0.39;78.53;96584.88;1743649;80;21122;-91
2021/03/18 02:20:29;;;;;;;30.43;20.52;;;;;;;0.39;78.14;96586.16;1722030;80;21304;-92
2021/03/18 02:23:18;;;;;;;27.30;19.32;;;;;;;0.40;78.42;96583.94;1741650;80;21272;-91
2021/03/18 02:26:12;;;;;;;25.88;20.02;;;;;;;0.40;78.51;96582.66;1741377;80;21133;-91
2021/03/18 02:29:09;;;;;;;25.92;18.37;;;;;;;0.42;78.51;96589.75;1703531;80;21137;-91
2021/03/18 02:32:05;;;;;;;27.58;18.95;;;;;;;0.45;78.69;96588.23;1738739;80;21098;-91
2021/03/18 02:35:27;;;;;;;25.75;20.37;;;;;;;0.44;78.45;96590.45;1740943;80;21462;-92
2021/03/18 02:38:21;;;;;;;22.48;15.93;;;;;;;0.35;78.65;96583.48;1740780;80;21164;-92
2021/03/18 02:40:54;;;;;;;26.30;19.23;;;;;;;0.38;78.69;96590.91;1742766;80;21336;-91
2021/03/18 02:43:22;;;;;;;22.82;16.70;;;;;;;0.34;78.95;96585.69;1738471;80;21122;-91
2021/03/18 02:45:52;;;;;;;27.35;19.45;;;;;;;0.40;78.90;96590.33;1740792;80;21141;-91
2021/03/18 02:48:23;;;;;;;24.40;19.17;;;;;;;0.37;79.02;96591.84;1740769;80;21535;-92
2021/03/18 02:50:52;;;;;;;24.20;18.37;;;;;;;0.34;79.02;96594.63;1742601;80;21463;-92
2021/03/18 02:53:18;;;;;;;21.40;16.32;;;;;;;0.30;79.08;96597.04;1737895;80;21384;-91
2021/03/18 02:55:46;;;;;;;28.90;21.12;;;;;;;0.25;79.24;96589.72;1742710;80;22092;-91
2021/03/18 02:58:14;;;;;;;22.32;16.42;;;;;;;0.22;79.21;96590.42;1743280;80;21157;-89
2021/03/18 03:00:41;;;;;;;26.60;19.32;;;;;;;0.23;79.35;96598.43;1742201;80;21087;-89
2021/03/18 03:03:07;;;;;;;19.95;16.85;;;;;;;0.20;79.36;96592.27;1742151;80;21321;-89
2021/03/18 03:05:34;;;;;;;27.42;19.05;;;;;;;0.23;79.76;96597.16;1741386;80;21408;-89
2021/03/18 03:08:01;;;;;;;19.60;14.00;;;;;;;0.22;79.59;96598.08;1741686;80;21137;-89
2021/03/18 03:10:27;;;;;;;23.00;17.42;;;;;;;0.20;79.65;96594.83;1741918;80;21146;-89
2021/03/18 03:12:53;;;;;;;27.07;19.07;;;;;;;0.16;79.94;96592.13;1741694;80;21157;-89
2021/03/18 03:15:19;;;;;;;25.50;20.15;;;;;;;0.16;79.94;96592.13;1706774;81;21122;-88
2021/03/18 03:17:45;;;;;;;26.45;19.82;;;;;;;0.21;79.94;96588.79;1741877;80;21139;-91
2021/03/18 03:20:13;;;;;;;25.15;19.77;;;;;;;0.31;80.03;96591.00;1742350;80;21114;-92
2021/03/18 03:22:39;;;;;;;25.35;19.35;;;;;;;0.35;79.94;96586.03;1718518;80;21333;-91
2021/03/18 03:25:08;;;;;;;25.48;20.00;;;;;;;0.39;79.89;96586.16;1745089;80;21110;-90
2021/03/18 03:27:34;;;;;;;25.12;18.73;;;;;;;0.41;79.87;96589.41;1712629;80;21440;-91
2021/03/18 03:30:00;;;;;;;21.30;14.90;;;;;;;0.38;79.91;96599.05;1741485;80;21357;-92
2021/03/18 03:32:26;;;;;;;28.55;20.55;;;;;;;0.25;80.18;96591.00;1736617;80;21125;-91
2021/03/18 03:34:52;;;;;;;26.42;18.70;;;;;;;0.11;79.93;96592.47;1740156;80;21158;-92
2021/03/18 03:37:18;;;;;;;27.55;20.92;;;;;;;0.09;80.13;96595.60;1740213;80;21137;-91
2021/03/18 03:39:44;;;;;;;27.67;20.97;;;;;;;0.11;80.30;96598.05;1741606;80;21129;-92
2021/03/18 03:42:10;;;;;;;24.67;17.57;;;;;;;0.12;80.29;96597.12;1739775;80;21098;-92
2021/03/18 03:44:38;;;;;;;31.90;22.17;;;;;;;0.10;80.45;96595.95;1739489;80;21149;-92
2021/03/18 03:47:05;;;;;;;35.33;24.27;;;;;;;0.10;80.50;96593.86;1744037;80;21240;-93
2021/03/18 03:49:32;;;;;;;20.37;14.05;;;;;;;0.09;80.88;96594.33;1737581;81;21288;-92
2021/03/18 03:52:55;;;;;;;30.57;22.37;;;;;;;0.09;80.67;96602.45;1742441;80;21367;-91
2021/03/18 03:55:51;;;;;;;24.45;18.00;;;;;;;0.06;80.69;96600.13;1740255;80;21217;-92
2021/03/18 03:58:46;;;;;;;29.77;21.80;;;;;;;-0.04;80.64;96579.53;1740573;80;21102;-92
2021/03/18 04:01:40;;;;;;;32.17;22.07;;;;;;;0.03;80.97;96599.08;1746940;80;21309;-92
2021/03/18 04:04:18;;;;;;;33.48;23.42;;;;;;;0.01;81.15;96604.30;1740075;80;21145;-92
2021/03/18 04:06:44;;;;;;;32.80;23.05;;;;;;;-0.07;81.04;96598.92;1740287;80;21236;-91
2021/03/18 04:09:14;;;;;;;33.75;23.15;;;;;;;-0.07;81.14;96607.39;1742966;80;21199;-92
2021/03/18 04:11:40;;;;;;;35.75;25.27;;;;;;;-0.03;81.23;96604.96;1743947;80;21341;-91
2021/03/18 04:14:08;;;;;;;40.65;26.25;;;;;;;0.03;81.32;96597.34;1739193;80;21420;-89
2021/03/18 04:16:36;;;;;;;38.15;25.08;;;;;;;0.01;81.26;96602.22;1740754;80;21159;-89
2021/03/18 04:19:02;;;;;;;27.85;19.37;;;;;;;-0.03;81.24;96605.42;1740470;80;21121;-89
2021/03/18 04:21:30;;;;;;;38.05;24.52;;;;;;;-0.03;81.71;96606.70;1742538;80;21138;-89
2021/03/18 04:23:57;;;;;;;37.13;26.10;;;;;;;-0.06;81.34;96612.04;1768502;79;21144;-89
2021/03/18 04:26:23;;;;;;;30.88;20.90;;;;;;;-0.08;81.37;96608.78;1740393;79;21157;-90
2021/03/18 04:28:49;;;;;;;34.65;23.27;;;;;;;-0.09;81.68;96606.70;1740912;80;21060;-89
2021/03/18 04:31:15;;;;;;;26.45;18.87;;;;;;;-0.08;81.54;96611.34;1741801;80;21135;-89
2021/03/18 04:33:41;;;;;;;34.92;25.27;;;;;;;-0.09;81.75;96607.16;1740640;80;21261;-88
2021/03/18 04:36:07;;;;;;;42.17;28.17;;;;;;;-0.10;81.67;96608.90;1714812;80;21488;-89
2021/03/18 04:38:33;;;;;;;40.28;26.12;;;;;;;-0.06;81.65;96607.75;1715332;82;21495;-91
2021/03/18 04:41:00;;;;;;;37.15;26.12;;;;;;;-0.09;81.80;96609.25;1749586;80;21130;-92
2021/03/18 04:43:26;;;;;;;37.23;25.75;;;;;;;-0.09;81.57;96614.82;1743025;80;21159;-91
2021/03/18 04:45:52;;;;;;;41.63;27.02;;;;;;;-0.19;81.85;96607.45;1755979;79;21589;-91
2021/03/18 04:48:18;;;;;;;31.35;18.75;;;;;;;-0.19;81.85;96607.45;1717398;80;21107;-91
2021/03/18 04:50:45;;;;;;;25.20;19.48;;;;;;;-0.14;82.31;96613.88;1749879;80;21404;-92
2021/03/18 04:53:11;;;;;;;30.52;22.32;;;;;;;-0.17;82.28;96614.08;1750663;79;21133;-93
2021/03/18 04:55:37;;;;;;;40.35;27.15;;;;;;;-0.21;82.18;96613.95;1766788;79;21143;-91
2021/03/18 04:58:05;;;;;;;38.48;26.82;;;;;;;-0.22;82.03;96614.06;1766589;79;21211;-92
2021/03/18 05:00:32;;;;;;;40.05;26.45;;;;;;;-0.15;82.12;96616.09;1753858;79;21141;-92
2021/03/18 05:03:01;;;;;;;41.20;28.12;;;;;;;-0.10;82.04;96619.12;1763522;79;21127;-92
2021/03/18 05:05:27;;;;;;;41.53;29.15;;;;;;;-0.03;82.14;96616.45;1749972;79;21102;-92
2021/03/18 05:07:53;;;;;;;42.15;26.50;;;;;;;0.05;82.00;96610.81;1740454;80;21349;-91
2021/03/18 05:10:22;;;;;;;27.40;19.20;;;;;;;0.10;81.85;96607.91;1748073;79;21125;-91
2021/03/18 05:12:52;;;;;;;37.83;27.02;;;;;;;0.08;81.85;96603.38;1738827;80;21167;-90
2021/03/18 05:15:18;;;;;;;35.68;24.32;;;;;;;0.07;81.67;96609.42;1751608;80;21141;-89
2021/03/18 05:17:44;;;;;;;45.12;29.10;;;;;;;0.06;81.67;96610.34;1766337;79;21351;-88
2021/03/18 05:20:12;;;;;;;45.65;30.75;;;;;;;0.03;81.66;96616.50;1752455;79;21259;-90
2021/03/18 05:22:38;;;;;;;40.90;27.77;;;;;;;0.06;81.73;96611.16;1736367;80;21151;-89
2021/03/18 05:25:08;;;;;;;43.38;28.27;;;;;;;0.06;81.63;96612.44;1740294;80;21283;-89
2021/03/18 05:27:36;;;;;;;41.15;28.92;;;;;;;0.07;81.67;96619.17;1752591;80;21331;-89
2021/03/18 05:30:07;;;;;;;44.10;29.85;;;;;;;0.10;81.71;96613.03;1755492;79;21260;-89
2021/03/18 05:32:33;;;;;;;40.98;27.60;;;;;;;0.14;81.64;96616.52;1763745;79;21433;-89
2021/03/18 05:34:59;;;;;;;42.80;29.18;;;;;;;0.14;81.58;96622.09;1766940;79;21127;-89
2021/03/18 05:37:25;;;;;;;35.52;23.67;;;;;;;0.14;81.47;96627.20;1766705;79;21128;-90
2021/03/18 05:39:51;;;;;;;45.15;30.82;;;;;;;0.09;81.52;96624.98;1765599;79;21072;-89
2021/03/18 05:42:17;;;;;;;39.53;28.80;;;;;;;0.04;81.66;96623.23;1767486;79;21119;-89
2021/03/18 05:44:46;;;;;;;41.18;27.98;;;;;;;0.01;81.75;96634.14;1765172;79;21211;-92
2021/03/18 05:47:12;;;;;;;40.28;28.65;;;;;;;-0.04;81.70;96628.06;1762660;79;21254;-92
2021/03/18 05:49:38;;;;;;;43.25;30.40;;;;;;;-0.09;82.07;96634.80;1764727;79;21235;-92
2021/03/18 05:52:09;;;;;;;28.00;17.15;;;;;;;-0.16;82.00;96637.45;1764248;79;21164;-91
2021/03/18 05:54:35;;;;;;;26.20;17.77;;;;;;;-0.18;82.92;96634.16;1767135;79;21132;-92
2021/03/18 05:57:01;;;;;;;43.55;30.45;;;;;;;-0.20;82.46;96647.97;1805257;77;21110;-92
2021/03/18 05:59:28;;;;;;;25.75;18.23;;;;;;;-0.18;82.39;96644.84;1799200;77;21162;-89
2021/03/18 06:01:55;;;;;;;37.50;25.40;;;;;;;-0.15;82.83;96642.09;1802691;77;21099;-89
2021/03/18 06:04:22;;;;;;;38.17;28.07;;;;;;;-0.20;82.50;96647.50;1802975;77;21243;-88
2021/03/18 06:06:48;;;;;;;38.20;27.35;;;;;;;-0.24;82.38;96641.45;1800258;77;21140;-89
2021/03/18 06:09:14;;;;;;;40.15;29.05;;;;;;;-0.26;82.50;96650.97;1794234;77;21279;-89
2021/03/18 06:11:41;;;;;;;36.60;25.45;;;;;;;-0.24;82.64;96649.92;1798128;77;21151;-89
2021/03/18 06:14:07;;;;;;;31.33;23.67;;;;;;;-0.24;82.70;96654.22;1795769;77;21104;-88
2021/03/18 06:16:34;;;;;;;32.45;23.07;;;;;;;-0.21;82.65;96659.92;1798230;77;21119;-89
2021/03/18 06:19:01;;;;;;;21.23;15.38;;;;;;;-0.20;82.61;96656.44;1778820;77;21226;-89
2021/03/18 06:21:51;;;;;;;25.85;19.82;;;;;;;-0.25;82.60;96668.73;1807542;77;21106;-89
2021/03/18 06:24:20;;;;;;;20.62;14.87;;;;;;;-0.35;82.63;96667.73;1801239;77;21759;-89
2021/03/18 06:26:46;;;;;;;21.48;17.23;;;;;;;-0.43;82.96;96672.58;1803877;77;21123;-89
2021/03/18 06:29:36;;;;;;;27.58;20.12;;;;;;;-0.45;83.00;96671.41;1805067;77;21123;-88
2021/03/18 06:32:17;;;;;;;30.92;22.10;;;;;;;-0.47;82.98;96672.44;1802108;77;21064;-87
2021/03/18 06:34:52;;;;;;;29.98;20.90;;;;;;;-0.50;82.93;96679.83;1796130;77;21080;-87
2021/03/18 06:37:46;;;;;;;33.80;22.27;;;;;;;-0.52;83.26;96675.75;1800737;77;21131;-87
2021/03/18 06:40:18;;;;;;;26.60;17.85;;;;;;;-0.53;82.99;96679.23;1802743;77;21119;-90
2021/03/18 06:43:00;;;;;;;;;;;;;;;-0.54;83.10;96676.33;1803928;77;21110;-90
2021/03/18 06:45:35;;;;;;;32.53;22.32;;;;;;;-0.57;83.14;96682.46;1804395;77;20169;-90
2021/03/18 06:48:13;;;;;;;26.68;17.80;;;;;;;-0.53;83.21;96683.88;1803915;77;21596;-91
2021/03/18 06:52:46;;;;;;;35.43;23.67;;;;;;;-0.31;83.53;96686.58;1798675;77;22151;-89
2021/03/18 06:55:15;;;;;;;28.87;21.55;;;;;;;-0.29;82.99;96686.94;1772048;80;21383;-89
2021/03/18 06:57:41;;;;;;;29.85;22.93;;;;;;;-0.24;83.00;96686.95;1744530;79;21351;-89
2021/03/18 07:00:09;;;;;;;26.25;19.95;;;;;;;-0.22;82.74;96690.67;1770959;78;21145;-89
2021/03/18 07:02:40;;;;;;;20.75;15.15;;;;;;;-0.24;82.53;96688.70;1780028;78;21130;-89
2021/03/18 07:05:18;;;;;;;32.25;22.98;;;;;;;-0.23;82.81;96689.05;1739215;81;21355;-89
2021/03/18 07:07:44;;;;;;;28.62;22.02;;;;;;;-0.26;82.44;96667.56;1732754;81;21094;-90
2021/03/18 07:10:11;;;;;;;29.37;21.10;;;;;;;-0.04;81.98;96697.85;1735920;80;21253;-89
2021/03/18 07:12:38;;;;;;;24.15;13.55;;;;;;;0.01;81.73;96686.52;1710884;81;21125;-88
2021/03/18 07:15:17;;;;;;;27.48;19.70;;;;;;;0.00;81.03;96693.37;1740643;80;21070;-90
2021/03/18 07:17:44;;;;;;;28.87;21.17;;;;;;;0.01;81.14;96685.24;1718770;81;21189;-90
2021/03/18 07:20:21;;;;;;;28.00;21.35;;;;;;;0.16;81.37;96677.73;1710055;81;21138;-90
2021/03/18 07:22:53;;;;;;;27.13;18.00;;;;;;;0.34;81.24;96683.28;1738897;80;21121;-90
2021/03/18 07:25:23;;;;;;;34.15;23.25;;;;;;;0.44;80.56;96684.22;1735163;80;21480;-90
2021/03/18 07:27:52;;;;;;;24.80;18.75;;;;;;;0.49;80.40;96682.17;1723047;82;21386;-91
2021/03/18 07:30:32;;;;;;;25.20;18.80;;;;;;;0.53;79.87;96686.13;1715568;82;21116;-90
2021/03/18 07:32:58;;;;;;;27.27;20.95;;;;;;;0.50;79.69;96685.89;1727129;81;21126;-90
2021/03/18 07:35:25;;;;;;;22.32;15.70;;;;;;;0.50;79.34;96691.00;1748665;80;21132;-90
2021/03/18 07:37:52;;;;;;;18.50;13.83;;;;;;;0.50;79.50;96687.63;1745179;80;21141;-91
2021/03/18 07:40:17;;;;;;;26.02;19.62;;;;;;;0.43;79.00;96687.70;1711139;82;21281;-90
2021/03/18 07:42:43;;;;;;;23.90;19.20;;;;;;;0.32;79.24;96682.55;1697527;83;21395;-91
2021/03/18 07:45:10;;;;;;;29.42;20.12;;;;;;;0.29;79.49;96689.52;1727353;82;21102;-91
2021/03/18 07:47:36;;;;;;;26.05;20.70;;;;;;;0.30;79.25;96690.33;1720865;83;21116;-90
2021/03/18 07:50:07;;;;;;;17.60;13.25;;;;;;;0.28;79.25;96690.45;1718093;83;21120;-91
2021/03/18 07:52:34;;;;;;;28.25;21.10;;;;;;;0.23;79.33;96686.60;1719539;82;21132;-91
2021/03/18 07:55:00;;;;;;;13.75;11.45;;;;;;;0.22;79.56;96689.62;1686404;83;21352;-91
2021/03/18 07:57:26;;;;;;;26.73;19.23;;;;;;;0.24;79.68;96692.87;1716342;82;21450;-91
2021/03/18 07:59:57;;;;;;;29.32;20.77;;;;;;;0.26;79.63;96687.66;1724930;82;22042;-91
2021/03/18 08:02:23;;;;;;;26.75;20.00;;;;;;;0.29;79.45;96681.85;1686780;83;21153;-91
2021/03/18 08:04:53;;;;;;;24.32;16.32;;;;;;;0.37;79.39;96683.87;1692091;83;21131;-91
2021/03/18 08:07:45;;;;;;;17.32;12.78;;;;;;;0.33;78.00;96682.93;1716781;82;21123;-91
2021/03/18 08:10:24;;;;;;;18.67;13.48;;;;;;;0.23;77.70;96683.58;1687646;83;21246;-91
2021/03/18 08:13:03;;;;;;;24.63;17.62;;;;;;;0.20;77.75;96683.81;1721529;82;21142;-92
2021/03/18 08:15:35;;;;;;;20.72;16.62;;;;;;;0.28;78.56;96689.63;1722443;82;21271;-91
2021/03/18 08:18:17;;;;;;;;;;;;;;;0.36;78.22;96689.91;1700359;82;21113;-92
2021/03/18 08:20:49;;;;;;;18.05;14.15;;;;;;;0.33;77.58;96691.41;1723153;82;20143;-89
2021/03/18 08:23:33;;;;;;;21.97;14.15;;;;;;;0.31;78.20;96694.52;1721565;82;21099;-89
2021/03/18 08:26:11;;;;;;;24.37;18.75;;;;;;;0.34;77.88;96696.88;1724306;82;21175;-89
2021/03/18 08:28:48;;;;;;;24.27;16.52;;;;;;;0.34;77.80;96694.78;1724840;82;21265;-92
2021/03/18 08:31:34;;;;;;;28.85;19.12;;;;;;;0.35;77.69;96701.52;1703965;82;21114;-91
2021/03/18 08:34:01;;;;;;;23.10;15.32;;;;;;;0.36;78.00;96695.02;1689106;83;21143;-91
2021/03/18 08:36:35;;;;;;;23.62;15.05;;;;;;;0.39;77.78;96698.63;1688237;84;21133;-91
2021/03/18 08:39:11;;;;;;;23.77;17.75;;;;;;;0.34;77.60;96685.84;1687223;83;21128;-91
2021/03/18 08:41:45;;;;;;;22.32;15.32;;;;;;;0.48;77.92;96697.94;1709405;82;21138;-91
2021/03/18 08:44:23;;;;;;;19.85;13.90;;;;;;;0.52;77.43;96695.53;1689015;83;21164;-91
2021/03/18 08:47:05;;;;;;;18.82;13.55;;;;;;;0.57;76.59;96688.80;1724077;82;21116;-91
2021/03/18 08:49:38;;;;;;;;;;;;;;;0.86;76.68;96691.30;1721292;82;21255;-91
2021/03/18 08:52:12;;;;;;;18.95;13.85;;;;;;;1.07;75.60;96694.45;1722630;82;20132;-91
2021/03/18 08:54:49;;;;;;;19.98;13.75;;;;;;;1.11;75.04;96693.29;1754389;81;21094;-91
2021/03/18 08:57:26;;;;;;;12.82;9.63;;;;;;;1.28;75.12;96697.13;1752479;80;21101;-90
2021/03/18 08:59:56;;;;;;;19.30;12.45;;;;;;;1.38;74.84;96696.33;1753694;80;21129;-92
2021/03/18 09:02:30;;;;;;;16.62;11.65;;;;;;;1.46;74.32;96688.05;1752458;80;21106;-90
2021/03/18 09:04:56;;;;;;;15.45;10.30;;;;;;;1.49;74.40;96685.27;1713731;83;21138;-91
2021/03/18 09:07:26;;;;;;;14.28;11.12;;;;;;;1.54;72.25;96686.19;1752642;80;21795;-91
2021/03/18 09:10:18;;;;;;;14.43;10.75;;;;;;;1.67;73.62;96683.84;1753467;80;21420;-91
2021/03/18 09:13:07;;;;;;;13.60;9.28;;;;;;;1.87;69.94;96685.31;1753342;81;21126;-90
2021/03/18 09:15:38;;;;;;;14.55;10.63;;;;;;;1.89;71.39;96688.56;1751305;80;21154;-91
2021/03/18 09:18:25;;;;;;;10.55;7.65;;;;;;;1.81;71.34;96686.62;1754225;80;21110;-91
2021/03/18 09:20:59;;;;;;;11.18;7.35;;;;;;;1.78;70.93;96690.67;1754924;80;21368;-90
2021/03/18 09:23:27;;;;;;;15.88;9.88;;;;;;;1.73;67.12;96684.64;1755357;80;21130;-90
2021/03/18 09:26:00;;;;;;;11.80;6.80;;;;;;;1.67;70.23;96682.56;1754574;80;21118;-88
2021/03/18 09:28:39;;;;;;;7.55;5.45;;;;;;;1.71;69.88;96685.23;1754663;81;21130;-90
2021/03/18 09:31:05;;;;;;;9.98;6.87;;;;;;;1.88;69.87;96683.09;1724952;82;21512;-89
2021/03/18 09:33:34;;;;;;;7.28;4.75;;;;;;;2.10;70.37;96677.89;1755172;81;21396;-91
2021/03/18 09:36:06;;;;;;;7.00;4.90;;;;;;;2.30;68.00;96678.41;1754590;80;21098;-92
2021/03/18 09:38:32;;;;;;;9.15;5.83;;;;;;;2.51;69.18;96675.05;1732052;80;21130;-91
2021/03/18 09:41:00;;;;;;;7.53;5.17;;;;;;;2.59;67.21;96672.66;1754379;80;21102;-92
2021/03/18 09:43:29;;;;;;;8.55;5.28;;;;;;;2.73;66.63;96672.81;1755311;80;21252;-91
2021/03/18 09:46:02;;;;;;;9.28;6.37;;;;;;;2.97;66.89;96669.05;1755046;80;21094;-91
2021/03/18 09:48:34;;;;;;;5.97;4.00;;;;;;;3.07;65.67;96665.23;1753785;80;21603;-91
2021/03/18 09:51:13;;;;;;;8.33;5.00;;;;;;;2.97;64.34;96663.92;1754682;80;21153;-91
2021/03/18 09:53:41;;;;;;;8.70;5.60;;;;;;;2.68;64.31;96660.38;1754125;80;21098;-91
2021/03/18 09:56:12;;;;;;;9.03;5.90;;;;;;;2.59;65.48;96662.39;1753264;80;21110;-91
2021/03/18 09:58:39;;;;;;;8.98;5.90;;;;;;;2.65;66.19;96664.48;1757202;80;21329;-92
2021/03/18 10:01:21;;;;;;;12.07;7.35;;;;;;;2.75;65.57;96657.63;1720742;82;21152;-91
2021/03/18 10:03:59;;;;;;;7.80;5.60;;;;;;;2.81;65.25;96658.90;1754859;80;21142;-90
2021/03/18 10:06:42;;;;;;;7.40;5.45;;;;;;;2.88;64.16;96662.09;1750809;80;22065;-91
2021/03/18 10:09:26;;;;;;;5.67;3.55;;;;;;;2.97;64.26;96653.65;1754825;80;21216;-91
2021/03/18 10:12:02;;;;;;;7.95;5.72;;;;;;;3.03;63.29;96658.73;1752946;81;21320;-90
2021/03/18 10:14:37;;;;;;;9.23;5.35;;;;;;;2.84;63.27;96657.36;1752893;80;21225;-90
2021/03/18 10:17:10;;;;;;;6.20;4.80;;;;;;;2.74;62.75;96644.46;1755200;81;21299;-91
2021/03/18 10:19:50;;;;;;;8.55;6.62;;;;;;;2.53;62.16;96651.36;1755087;80;21119;-91
2021/03/18 10:22:16;;;;;;;7.03;5.50;;;;;;;2.38;66.17;96640.13;1751582;81;21102;-90
2021/03/18 10:24:42;;;;;;;8.45;5.78;;;;;;;2.40;63.47;96652.36;1755525;80;21487;-90
2021/03/18 10:27:14;;;;;;;8.73;5.30;;;;;;;2.34;64.31;96645.17;1753629;80;21321;-89
2021/03/18 10:29:44;;;;;;;8.40;5.60;;;;;;;2.50;64.38;96641.36;1755239;80;21133;-89
2021/03/18 10:32:14;;;;;;;8.18;5.55;;;;;;;2.67;65.60;96635.66;1725781;81;21221;-88
2021/03/18 10:34:41;;;;;;;6.53;4.03;;;;;;;2.80;65.53;96643.16;1755489;80;21220;-88
2021/03/18 10:37:32;;;;;;;7.08;3.77;;;;;;;2.74;64.49;96650.06;1724079;80;21149;-88
2021/03/18 10:40:14;;;;;;;5.03;3.25;;;;;;;2.48;65.51;96667.61;1753618;80;21118;-89
2021/03/18 10:42:40;;;;;;;6.10;3.52;;;;;;;2.01;67.58;96682.02;1754709;80;21119;-89
2021/03/18 10:45:21;;;;;;;4.40;3.37;;;;;;;1.62;68.37;96683.37;1754573;81;21158;-89
2021/03/18 10:47:47;;;;;;;3.95;3.00;;;;;;;1.43;69.05;96678.04;1755549;80;21130;-89
2021/03/18 10:50:15;;;;;;;4.53;3.27;;;;;;;1.25;68.68;96670.49;1754811;80;21110;-88
2021/03/18 10:52:58;;;;;;;5.90;3.15;;;;;;;1.23;69.69;96667.23;1753234;81;21094;-89
2021/03/18 10:55:29;;;;;;;3.92;3.27;;;;;;;1.28;70.31;96668.97;1750186;80;21094;-88
2021/03/18 10:57:56;;;;;;;6.05;4.00;;;;;;;1.41;70.73;96668.39;1751507;80;21134;-89
2021/03/18 11:00:24;;;;;;;5.78;4.83;;;;;;;1.53;70.83;96670.48;1752191;80;21154;-88
2021/03/18 11:03:10;;;;;;;10.60;6.35;;;;;;;1.55;69.19;96668.14;1750305;80;21139;-88
2021/03/18 11:05:41;;;;;;;3.70;3.00;;;;;;;1.43;68.23;96665.23;1749888;80;21125;-89
2021/03/18 11:08:30;;;;;;;6.45;4.47;;;;;;;1.45;68.46;96645.45;1804182;79;21206;-88
2021/03/18 11:10:58;;;;;;;5.78;3.55;;;;;;;1.57;69.07;96643.22;1780246;80;21105;-88
2021/03/18 11:13:28;;;;;;;6.08;3.72;;;;;;;1.76;68.29;96636.99;1777805;79;21098;-90
2021/03/18 14:44:50;;;;;;;14.03;10.18;;;;;;;2.74;64.59;96492.27;1802380;77;23263;-88
2021/03/18 14:47:19;;;;;;;15.50;9.68;;;;;;;2.58;65.56;96495.31;1819367;78;21073;-89
2021/03/18 18:03:49;;;;;;;27.40;19.98;;;;;;;0.84;71.95;96441.19;1814669;77;22659;-91
2021/03/18 18:06:16;;;;;;;29.65;21.12;;;;;;;0.82;71.81;96440.97;1811918;78;21078;-92
2021/03/18 18:08:43;;;;;;;30.43;21.35;;;;;;;0.83;72.08;96440.03;1806797;78;21133;-91
2021/03/18 18:11:09;;;;;;;34.25;22.27;;;;;;;0.85;72.12;96442.81;1818895;78;21475;-92
2021/03/18 18:13:35;;;;;;;80.97;41.35;;;;;;;0.88;72.11;96441.29;1813375;78;21156;-91
2021/03/18 18:16:06;;;;;;;122.35;56.08;;;;;;;0.89;72.17;96445.94;1812714;78;21070;-92
2021/03/18 18:18:33;;;;;;;75.03;41.05;;;;;;;0.91;72.26;96441.52;1813099;78;21062;-92
2021/03/18 19:31:48;;;;;;;42.90;27.42;;;;;;;0.74;72.13;96435.63;1755072;79;23099;-84
2021/03/18 19:34:18;;;;;;;49.70;30.27;;;;;;;0.70;72.22;96445.76;1734889;82;21211;-86
2021/03/18 19:36:46;;;;;;;50.98;30.82;;;;;;;0.72;72.63;96443.89;1729925;82;21162;-86
2021/03/18 19:39:12;;;;;;;54.27;33.05;;;;;;;0.73;72.38;96437.84;1729832;82;21126;-86
2021/03/18 19:41:41;;;;;;;58.42;34.63;;;;;;;0.72;72.29;96432.38;1699962;82;21241;-87